sensor_id;sensor_type;location;lat;lon;timestamp;P1;durP1;ratioP1;P2;durP2;ratioP2
7931;SDS011;4011;49.424;10.894;2023-04-24T00:01:31;2.35;;;1.50;;
7931;SDS011;4011;49.424;10.894;2023-04-24T00:06:54;2.75;;;1.45;;
7931;SDS011;4011;49.424;10.894;2023-04-24T00:12:17;2.38;;;1.63;;
7931;SDS011;4011;49.424;10.894;2023-04-24T00:17:40;2.15;;;1.50;;
7931;SDS011;4011;49.424;10.894;2023-04-24T00:23:01;2.47;;;1.40;;
7931;SDS011;4011;49.424;10.894;2023-04-24T00:28:23;2.85;;;1.48;;
7931;SDS011;4011;49.424;10.894;2023-04-24T00:33:45;2.50;;;1.40;;
7931;SDS011;4011;49.424;10.894;2023-04-24T00:39:07;2.95;;;1.50;;
7931;SDS011;4011;49.424;10.894;2023-04-24T00:44:30;2.28;;;1.40;;
7931;SDS011;4011;49.424;10.894;2023-04-24T00:49:52;2.53;;;1.50;;
7931;SDS011;4011;49.424;10.894;2023-04-24T00:55:14;2.10;;;1.33;;
7931;SDS011;4011;49.424;10.894;2023-04-24T01:00:36;2.40;;;1.70;;
7931;SDS011;4011;49.424;10.894;2023-04-24T01:06:03;2.40;;;1.50;;
7931;SDS011;4011;49.424;10.894;2023-04-24T01:11:25;2.42;;;1.42;;
7931;SDS011;4011;49.424;10.894;2023-04-24T01:16:47;1.77;;;1.23;;
7931;SDS011;4011;49.424;10.894;2023-04-24T01:22:11;2.60;;;1.50;;
7931;SDS011;4011;49.424;10.894;2023-04-24T01:27:33;2.55;;;1.50;;
7931;SDS011;4011;49.424;10.894;2023-04-24T01:32:55;2.05;;;1.38;;
7931;SDS011;4011;49.424;10.894;2023-04-24T01:38:18;2.20;;;1.40;;
7931;SDS011;4011;49.424;10.894;2023-04-24T01:43:39;1.90;;;1.30;;
7931;SDS011;4011;49.424;10.894;2023-04-24T01:49:01;1.90;;;1.30;;
7931;SDS011;4011;49.424;10.894;2023-04-24T01:54:23;2.03;;;1.40;;
7931;SDS011;4011;49.424;10.894;2023-04-24T01:59:45;2.15;;;1.33;;
7931;SDS011;4011;49.424;10.894;2023-04-24T02:05:07;2.38;;;1.25;;
7931;SDS011;4011;49.424;10.894;2023-04-24T02:10:30;1.90;;;1.35;;
7931;SDS011;4011;49.424;10.894;2023-04-24T02:15:52;2.13;;;1.40;;
7931;SDS011;4011;49.424;10.894;2023-04-24T02:21:14;2.40;;;1.40;;
7931;SDS011;4011;49.424;10.894;2023-04-24T02:26:37;2.00;;;1.33;;
7931;SDS011;4011;49.424;10.894;2023-04-24T02:31:58;2.42;;;1.50;;
7931;SDS011;4011;49.424;10.894;2023-04-24T02:37:19;2.05;;;1.30;;
7931;SDS011;4011;49.424;10.894;2023-04-24T02:42:42;2.15;;;1.35;;
7931;SDS011;4011;49.424;10.894;2023-04-24T02:48:04;2.15;;;1.30;;
7931;SDS011;4011;49.424;10.894;2023-04-24T02:53:26;1.75;;;1.30;;
7931;SDS011;4011;49.424;10.894;2023-04-24T02:58:49;2.38;;;1.30;;
7931;SDS011;4011;49.424;10.894;2023-04-24T03:04:10;1.77;;;1.10;;
7931;SDS011;4011;49.424;10.894;2023-04-24T03:09:32;2.53;;;1.48;;
7931;SDS011;4011;49.424;10.894;2023-04-24T03:14:55;1.92;;;1.38;;
7931;SDS011;4011;49.424;10.894;2023-04-24T03:26:03;2.05;;;1.20;;
7931;SDS011;4011;49.424;10.894;2023-04-24T03:31:26;1.63;;;1.25;;
7931;SDS011;4011;49.424;10.894;2023-04-24T03:36:47;1.38;;;1.10;;
7931;SDS011;4011;49.424;10.894;2023-04-24T03:42:09;1.75;;;1.30;;
7931;SDS011;4011;49.424;10.894;2023-04-24T03:47:31;1.52;;;1.05;;
7931;SDS011;4011;49.424;10.894;2023-04-24T03:52:53;1.63;;;1.05;;
7931;SDS011;4011;49.424;10.894;2023-04-24T03:58:16;1.88;;;1.38;;
7931;SDS011;4011;49.424;10.894;2023-04-24T04:03:40;2.38;;;1.20;;
7931;SDS011;4011;49.424;10.894;2023-04-24T04:09:01;3.42;;;1.30;;
7931;SDS011;4011;49.424;10.894;2023-04-24T04:14:23;2.50;;;1.27;;
7931;SDS011;4011;49.424;10.894;2023-04-24T04:19:46;1.73;;;1.30;;
7931;SDS011;4011;49.424;10.894;2023-04-24T04:25:07;2.50;;;1.40;;
7931;SDS011;4011;49.424;10.894;2023-04-24T04:30:29;3.92;;;1.40;;
7931;SDS011;4011;49.424;10.894;2023-04-24T04:35:53;3.30;;;1.40;;
7931;SDS011;4011;49.424;10.894;2023-04-24T04:41:16;3.13;;;1.60;;
7931;SDS011;4011;49.424;10.894;2023-04-24T04:46:38;4.35;;;1.70;;
7931;SDS011;4011;49.424;10.894;2023-04-24T04:52:03;2.50;;;1.60;;
7931;SDS011;4011;49.424;10.894;2023-04-24T04:57:25;3.33;;;1.30;;
7931;SDS011;4011;49.424;10.894;2023-04-24T05:02:46;4.07;;;1.30;;
7931;SDS011;4011;49.424;10.894;2023-04-24T05:08:09;2.30;;;1.23;;
7931;SDS011;4011;49.424;10.894;2023-04-24T05:13:31;2.42;;;1.38;;
7931;SDS011;4011;49.424;10.894;2023-04-24T05:18:52;2.50;;;1.40;;
7931;SDS011;4011;49.424;10.894;2023-04-24T05:24:15;2.47;;;1.35;;
7931;SDS011;4011;49.424;10.894;2023-04-24T05:29:37;2.47;;;1.15;;
7931;SDS011;4011;49.424;10.894;2023-04-24T05:34:59;2.47;;;1.40;;
7931;SDS011;4011;49.424;10.894;2023-04-24T05:40:21;2.40;;;1.50;;
7931;SDS011;4011;49.424;10.894;2023-04-24T05:45:43;2.40;;;1.30;;
7931;SDS011;4011;49.424;10.894;2023-04-24T05:51:05;1.45;;;1.20;;
7931;SDS011;4011;49.424;10.894;2023-04-24T05:56:28;2.20;;;1.40;;
7931;SDS011;4011;49.424;10.894;2023-04-24T06:01:49;2.20;;;1.30;;
7931;SDS011;4011;49.424;10.894;2023-04-24T06:07:11;2.35;;;1.40;;
7931;SDS011;4011;49.424;10.894;2023-04-24T06:12:34;3.10;;;1.50;;
7931;SDS011;4011;49.424;10.894;2023-04-24T06:17:55;2.38;;;1.17;;
7931;SDS011;4011;49.424;10.894;2023-04-24T06:23:17;2.38;;;1.33;;
7931;SDS011;4011;49.424;10.894;2023-04-24T06:28:40;3.42;;;1.50;;
7931;SDS011;4011;49.424;10.894;2023-04-24T06:34:01;2.60;;;1.50;;
7931;SDS011;4011;49.424;10.894;2023-04-24T06:39:23;3.42;;;1.50;;
7931;SDS011;4011;49.424;10.894;2023-04-24T06:44:46;4.10;;;1.50;;
7931;SDS011;4011;49.424;10.894;2023-04-24T06:50:08;3.83;;;1.50;;
7931;SDS011;4011;49.424;10.894;2023-04-24T06:55:30;2.90;;;1.38;;
7931;SDS011;4011;49.424;10.894;2023-04-24T07:00:56;3.20;;;1.50;;
7931;SDS011;4011;49.424;10.894;2023-04-24T07:06:18;3.00;;;1.70;;
7931;SDS011;4011;49.424;10.894;2023-04-24T07:11:42;2.35;;;1.42;;
7931;SDS011;4011;49.424;10.894;2023-04-24T07:17:06;4.18;;;1.42;;
7931;SDS011;4011;49.424;10.894;2023-04-24T07:22:28;2.53;;;1.23;;
7931;SDS011;4011;49.424;10.894;2023-04-24T07:27:49;2.65;;;1.30;;
7931;SDS011;4011;49.424;10.894;2023-04-24T07:33:12;2.28;;;1.33;;
7931;SDS011;4011;49.424;10.894;2023-04-24T07:38:34;1.95;;;1.33;;
7931;SDS011;4011;49.424;10.894;2023-04-24T07:43:56;2.95;;;1.45;;
7931;SDS011;4011;49.424;10.894;2023-04-24T07:49:19;1.95;;;1.20;;
7931;SDS011;4011;49.424;10.894;2023-04-24T07:54:40;2.75;;;1.40;;
7931;SDS011;4011;49.424;10.894;2023-04-24T08:00:03;2.90;;;1.40;;
7931;SDS011;4011;49.424;10.894;2023-04-24T08:05:27;2.78;;;1.30;;
7931;SDS011;4011;49.424;10.894;2023-04-24T08:10:48;1.63;;;1.30;;
7931;SDS011;4011;49.424;10.894;2023-04-24T08:16:10;3.05;;;1.27;;
7931;SDS011;4011;49.424;10.894;2023-04-24T08:21:33;2.13;;;1.40;;
7931;SDS011;4011;49.424;10.894;2023-04-24T08:26:55;2.78;;;1.35;;
7931;SDS011;4011;49.424;10.894;2023-04-24T08:32:18;2.28;;;1.30;;
7931;SDS011;4011;49.424;10.894;2023-04-24T08:37:40;2.83;;;1.50;;
7931;SDS011;4011;49.424;10.894;2023-04-24T08:43:02;3.30;;;1.45;;
7931;SDS011;4011;49.424;10.894;2023-04-24T08:48:24;2.83;;;1.40;;
7931;SDS011;4011;49.424;10.894;2023-04-24T08:53:47;2.88;;;1.52;;
7931;SDS011;4011;49.424;10.894;2023-04-24T08:59:09;2.80;;;1.50;;
7931;SDS011;4011;49.424;10.894;2023-04-24T09:04:31;2.60;;;1.48;;
7931;SDS011;4011;49.424;10.894;2023-04-24T09:09:56;2.78;;;1.60;;
7931;SDS011;4011;49.424;10.894;2023-04-24T09:15:18;3.13;;;1.58;;
7931;SDS011;4011;49.424;10.894;2023-04-24T09:20:59;2.20;;;1.25;;
7931;SDS011;4011;49.424;10.894;2023-04-24T09:26:22;2.60;;;1.50;;
7931;SDS011;4011;49.424;10.894;2023-04-24T09:31:44;2.15;;;1.40;;
7931;SDS011;4011;49.424;10.894;2023-04-24T09:37:06;4.22;;;1.40;;
7931;SDS011;4011;49.424;10.894;2023-04-24T09:42:30;2.45;;;1.42;;
7931;SDS011;4011;49.424;10.894;2023-04-24T09:47:52;2.67;;;1.50;;
7931;SDS011;4011;49.424;10.894;2023-04-24T09:53:15;2.17;;;1.40;;
7931;SDS011;4011;49.424;10.894;2023-04-24T09:58:38;2.88;;;1.42;;
7931;SDS011;4011;49.424;10.894;2023-04-24T10:04:00;2.22;;;1.38;;
7931;SDS011;4011;49.424;10.894;2023-04-24T10:09:22;2.20;;;1.35;;
7931;SDS011;4011;49.424;10.894;2023-04-24T10:14:45;2.05;;;1.48;;
7931;SDS011;4011;49.424;10.894;2023-04-24T10:20:07;2.00;;;1.40;;
7931;SDS011;4011;49.424;10.894;2023-04-24T10:25:29;2.50;;;1.40;;
7931;SDS011;4011;49.424;10.894;2023-04-24T10:30:52;2.03;;;1.60;;
7931;SDS011;4011;49.424;10.894;2023-04-24T10:36:15;1.55;;;1.25;;
7931;SDS011;4011;49.424;10.894;2023-04-24T10:41:38;2.92;;;1.60;;
7931;SDS011;4011;49.424;10.894;2023-04-24T10:47:01;2.28;;;1.38;;
7931;SDS011;4011;49.424;10.894;2023-04-24T10:52:25;1.80;;;1.38;;
7931;SDS011;4011;49.424;10.894;2023-04-24T10:58:06;1.98;;;1.40;;
7931;SDS011;4011;49.424;10.894;2023-04-24T11:03:28;2.88;;;1.60;;
7931;SDS011;4011;49.424;10.894;2023-04-24T11:08:50;4.05;;;1.60;;
7931;SDS011;4011;49.424;10.894;2023-04-24T11:14:13;2.67;;;1.50;;
7931;SDS011;4011;49.424;10.894;2023-04-24T11:19:35;2.05;;;1.40;;
7931;SDS011;4011;49.424;10.894;2023-04-24T11:24:57;1.92;;;1.50;;
7931;SDS011;4011;49.424;10.894;2023-04-24T11:30:23;2.60;;;1.48;;
7931;SDS011;4011;49.424;10.894;2023-04-24T11:35:50;3.55;;;1.60;;
7931;SDS011;4011;49.424;10.894;2023-04-24T11:41:12;3.65;;;1.60;;
7931;SDS011;4011;49.424;10.894;2023-04-24T11:46:35;3.78;;;1.70;;
7931;SDS011;4011;49.424;10.894;2023-04-24T11:51:58;5.53;;;1.88;;
7931;SDS011;4011;49.424;10.894;2023-04-24T11:57:22;9.23;;;2.28;;
7931;SDS011;4011;49.424;10.894;2023-04-24T12:02:45;7.78;;;2.08;;
7931;SDS011;4011;49.424;10.894;2023-04-24T12:08:07;7.38;;;1.80;;
7931;SDS011;4011;49.424;10.894;2023-04-24T12:13:29;4.70;;;1.70;;
7931;SDS011;4011;49.424;10.894;2023-04-24T12:18:52;5.20;;;2.30;;
7931;SDS011;4011;49.424;10.894;2023-04-24T12:24:14;7.13;;;2.28;;
7931;SDS011;4011;49.424;10.894;2023-04-24T12:29:36;5.05;;;1.92;;
7931;SDS011;4011;49.424;10.894;2023-04-24T12:34:58;3.60;;;1.60;;
7931;SDS011;4011;49.424;10.894;2023-04-24T12:40:21;3.78;;;1.80;;
7931;SDS011;4011;49.424;10.894;2023-04-24T12:45:42;5.00;;;2.08;;
7931;SDS011;4011;49.424;10.894;2023-04-24T12:51:06;3.67;;;1.65;;
7931;SDS011;4011;49.424;10.894;2023-04-24T12:56:28;4.60;;;1.55;;
7931;SDS011;4011;49.424;10.894;2023-04-24T13:01:53;2.75;;;1.55;;
7931;SDS011;4011;49.424;10.894;2023-04-24T13:07:16;3.17;;;1.52;;
7931;SDS011;4011;49.424;10.894;2023-04-24T13:12:37;3.78;;;1.75;;
7931;SDS011;4011;49.424;10.894;2023-04-24T13:18:00;2.20;;;1.50;;
7931;SDS011;4011;49.424;10.894;2023-04-24T13:23:23;2.33;;;1.60;;
7931;SDS011;4011;49.424;10.894;2023-04-24T13:28:45;3.20;;;1.67;;
7931;SDS011;4011;49.424;10.894;2023-04-24T13:34:06;4.97;;;1.65;;
7931;SDS011;4011;49.424;10.894;2023-04-24T13:39:30;2.22;;;1.40;;
7931;SDS011;4011;49.424;10.894;2023-04-24T13:44:51;2.63;;;1.50;;
7931;SDS011;4011;49.424;10.894;2023-04-24T13:50:14;2.40;;;1.50;;
7931;SDS011;4011;49.424;10.894;2023-04-24T13:55:37;2.92;;;1.73;;
7931;SDS011;4011;49.424;10.894;2023-04-24T14:00:59;3.67;;;1.42;;
7931;SDS011;4011;49.424;10.894;2023-04-24T14:06:21;2.55;;;1.50;;
7931;SDS011;4011;49.424;10.894;2023-04-24T14:11:45;2.40;;;1.50;;
7931;SDS011;4011;49.424;10.894;2023-04-24T14:17:06;2.17;;;1.45;;
7931;SDS011;4011;49.424;10.894;2023-04-24T14:22:29;2.78;;;1.60;;
7931;SDS011;4011;49.424;10.894;2023-04-24T14:27:52;2.53;;;1.40;;
7931;SDS011;4011;49.424;10.894;2023-04-24T14:33:14;2.42;;;1.60;;
7931;SDS011;4011;49.424;10.894;2023-04-24T14:38:36;2.65;;;1.80;;
7931;SDS011;4011;49.424;10.894;2023-04-24T14:43:59;1.85;;;1.40;;
7931;SDS011;4011;49.424;10.894;2023-04-24T14:49:20;2.60;;;1.60;;
7931;SDS011;4011;49.424;10.894;2023-04-24T14:54:45;2.42;;;1.50;;
7931;SDS011;4011;49.424;10.894;2023-04-24T15:00:08;2.72;;;1.70;;
7931;SDS011;4011;49.424;10.894;2023-04-24T15:05:31;2.50;;;1.60;;
7931;SDS011;4011;49.424;10.894;2023-04-24T15:10:53;2.58;;;1.70;;
7931;SDS011;4011;49.424;10.894;2023-04-24T15:16:16;2.40;;;1.70;;
7931;SDS011;4011;49.424;10.894;2023-04-24T15:21:37;2.65;;;1.80;;
7931;SDS011;4011;49.424;10.894;2023-04-24T15:27:00;1.85;;;1.52;;
7931;SDS011;4011;49.424;10.894;2023-04-24T15:32:24;2.42;;;1.60;;
7931;SDS011;4011;49.424;10.894;2023-04-24T15:37:46;3.60;;;1.95;;
7931;SDS011;4011;49.424;10.894;2023-04-24T15:43:07;5.68;;;2.40;;
7931;SDS011;4011;49.424;10.894;2023-04-24T15:48:30;7.45;;;2.72;;
7931;SDS011;4011;49.424;10.894;2023-04-24T15:53:52;6.38;;;2.38;;
7931;SDS011;4011;49.424;10.894;2023-04-24T15:59:14;4.97;;;2.20;;
7931;SDS011;4011;49.424;10.894;2023-04-24T16:04:36;5.10;;;2.30;;
7931;SDS011;4011;49.424;10.894;2023-04-24T16:09:58;3.78;;;2.20;;
7931;SDS011;4011;49.424;10.894;2023-04-24T16:15:20;4.68;;;2.40;;
7931;SDS011;4011;49.424;10.894;2023-04-24T16:20:43;4.53;;;2.15;;
7931;SDS011;4011;49.424;10.894;2023-04-24T16:26:05;5.80;;;2.10;;
7931;SDS011;4011;49.424;10.894;2023-04-24T16:31:33;4.78;;;2.30;;
7931;SDS011;4011;49.424;10.894;2023-04-24T16:36:56;4.50;;;2.40;;
7931;SDS011;4011;49.424;10.894;2023-04-24T16:42:17;5.35;;;2.70;;
7931;SDS011;4011;49.424;10.894;2023-04-24T16:47:39;4.55;;;2.58;;
7931;SDS011;4011;49.424;10.894;2023-04-24T16:53:02;5.60;;;2.63;;
7931;SDS011;4011;49.424;10.894;2023-04-24T16:58:24;4.20;;;2.20;;
7931;SDS011;4011;49.424;10.894;2023-04-24T17:03:46;4.95;;;2.30;;
7931;SDS011;4011;49.424;10.894;2023-04-24T17:09:12;3.65;;;2.30;;
7931;SDS011;4011;49.424;10.894;2023-04-24T17:14:34;4.18;;;2.40;;
7931;SDS011;4011;49.424;10.894;2023-04-24T17:19:56;4.20;;;2.50;;
7931;SDS011;4011;49.424;10.894;2023-04-24T17:25:19;3.90;;;2.30;;
7931;SDS011;4011;49.424;10.894;2023-04-24T17:30:41;4.28;;;2.40;;
7931;SDS011;4011;49.424;10.894;2023-04-24T17:36:03;4.53;;;2.42;;
7931;SDS011;4011;49.424;10.894;2023-04-24T17:41:27;4.18;;;2.28;;
7931;SDS011;4011;49.424;10.894;2023-04-24T17:46:50;3.50;;;2.33;;
7931;SDS011;4011;49.424;10.894;2023-04-24T17:52:12;3.88;;;2.55;;
7931;SDS011;4011;49.424;10.894;2023-04-24T17:57:38;3.30;;;2.30;;
7931;SDS011;4011;49.424;10.894;2023-04-24T18:03:13;5.20;;;2.60;;
7931;SDS011;4011;49.424;10.894;2023-04-24T18:08:35;3.97;;;2.50;;
7931;SDS011;4011;49.424;10.894;2023-04-24T18:14:01;4.28;;;2.50;;
7931;SDS011;4011;49.424;10.894;2023-04-24T18:19:35;2.85;;;1.98;;
7931;SDS011;4011;49.424;10.894;2023-04-24T18:25:00;3.40;;;2.47;;
7931;SDS011;4011;49.424;10.894;2023-04-24T18:30:35;4.43;;;2.20;;
7931;SDS011;4011;49.424;10.894;2023-04-24T18:35:59;3.50;;;2.47;;
7931;SDS011;4011;49.424;10.894;2023-04-24T18:41:22;3.00;;;2.10;;
7931;SDS011;4011;49.424;10.894;2023-04-24T18:46:46;3.15;;;2.35;;
7931;SDS011;4011;49.424;10.894;2023-04-24T18:52:10;2.95;;;2.17;;
7931;SDS011;4011;49.424;10.894;2023-04-24T18:57:32;2.95;;;2.17;;
7931;SDS011;4011;49.424;10.894;2023-04-24T19:02:59;3.67;;;2.33;;
7931;SDS011;4011;49.424;10.894;2023-04-24T19:08:24;2.90;;;2.20;;
7931;SDS011;4011;49.424;10.894;2023-04-24T19:13:49;3.55;;;2.22;;
7931;SDS011;4011;49.424;10.894;2023-04-24T19:19:12;3.50;;;2.50;;
7931;SDS011;4011;49.424;10.894;2023-04-24T19:24:38;3.58;;;2.30;;
7931;SDS011;4011;49.424;10.894;2023-04-24T19:30:00;3.65;;;2.40;;
7931;SDS011;4011;49.424;10.894;2023-04-24T19:35:23;3.00;;;2.33;;
7931;SDS011;4011;49.424;10.894;2023-04-24T19:40:58;3.30;;;2.10;;
7931;SDS011;4011;49.424;10.894;2023-04-24T19:46:23;3.20;;;2.30;;
7931;SDS011;4011;49.424;10.894;2023-04-24T19:51:49;3.00;;;2.17;;
7931;SDS011;4011;49.424;10.894;2023-04-24T19:57:11;4.00;;;2.42;;
7931;SDS011;4011;49.424;10.894;2023-04-24T20:02:35;2.97;;;2.10;;
7931;SDS011;4011;49.424;10.894;2023-04-24T20:08:02;4.28;;;2.40;;
7931;SDS011;4011;49.424;10.894;2023-04-24T20:13:24;4.72;;;2.90;;
7931;SDS011;4011;49.424;10.894;2023-04-24T20:18:47;3.75;;;2.40;;
7931;SDS011;4011;49.424;10.894;2023-04-24T20:24:14;4.25;;;2.30;;
7931;SDS011;4011;49.424;10.894;2023-04-24T20:29:36;3.20;;;2.20;;
7931;SDS011;4011;49.424;10.894;2023-04-24T20:34:58;3.83;;;2.20;;
7931;SDS011;4011;49.424;10.894;2023-04-24T20:40:24;4.18;;;2.40;;
7931;SDS011;4011;49.424;10.894;2023-04-24T20:45:50;3.50;;;2.15;;
7931;SDS011;4011;49.424;10.894;2023-04-24T20:51:13;3.83;;;2.30;;
7931;SDS011;4011;49.424;10.894;2023-04-24T20:56:36;3.97;;;2.40;;
7931;SDS011;4011;49.424;10.894;2023-04-24T21:01:58;4.25;;;2.10;;
7931;SDS011;4011;49.424;10.894;2023-04-24T21:07:23;3.63;;;2.25;;
7931;SDS011;4011;49.424;10.894;2023-04-24T21:12:49;3.58;;;2.50;;
7931;SDS011;4011;49.424;10.894;2023-04-24T21:18:11;4.15;;;2.30;;
7931;SDS011;4011;49.424;10.894;2023-04-24T21:23:35;4.40;;;2.50;;
7931;SDS011;4011;49.424;10.894;2023-04-24T21:29:06;4.68;;;2.30;;
7931;SDS011;4011;49.424;10.894;2023-04-24T21:34:34;4.50;;;2.15;;
7931;SDS011;4011;49.424;10.894;2023-04-24T21:39:56;3.42;;;2.50;;
7931;SDS011;4011;49.424;10.894;2023-04-24T21:45:20;5.25;;;2.50;;
7931;SDS011;4011;49.424;10.894;2023-04-24T21:50:42;5.22;;;2.40;;
7931;SDS011;4011;49.424;10.894;2023-04-24T21:56:07;5.22;;;2.53;;
7931;SDS011;4011;49.424;10.894;2023-04-24T22:01:31;4.78;;;2.40;;
7931;SDS011;4011;49.424;10.894;2023-04-24T22:06:53;4.32;;;2.47;;
7931;SDS011;4011;49.424;10.894;2023-04-24T22:12:18;3.97;;;2.22;;
7931;SDS011;4011;49.424;10.894;2023-04-24T22:17:50;5.43;;;2.60;;
7931;SDS011;4011;49.424;10.894;2023-04-24T22:23:16;4.03;;;2.47;;
7931;SDS011;4011;49.424;10.894;2023-04-24T22:28:40;4.65;;;2.33;;
7931;SDS011;4011;49.424;10.894;2023-04-24T22:34:07;4.72;;;2.17;;
7931;SDS011;4011;49.424;10.894;2023-04-24T22:39:35;3.70;;;2.10;;
7931;SDS011;4011;49.424;10.894;2023-04-24T22:45:00;4.63;;;2.40;;
7931;SDS011;4011;49.424;10.894;2023-04-24T22:50:29;3.70;;;2.25;;
7931;SDS011;4011;49.424;10.894;2023-04-24T22:55:51;3.95;;;2.10;;
7931;SDS011;4011;49.424;10.894;2023-04-24T23:01:13;4.78;;;2.13;;
7931;SDS011;4011;49.424;10.894;2023-04-24T23:06:38;3.53;;;2.10;;
7931;SDS011;4011;49.424;10.894;2023-04-24T23:12:01;4.22;;;2.15;;
7931;SDS011;4011;49.424;10.894;2023-04-24T23:17:26;3.67;;;2.40;;
7931;SDS011;4011;49.424;10.894;2023-04-24T23:23:05;3.15;;;2.10;;
7931;SDS011;4011;49.424;10.894;2023-04-24T23:28:36;3.35;;;1.92;;
7931;SDS011;4011;49.424;10.894;2023-04-24T23:34:03;2.90;;;1.73;;
7931;SDS011;4011;49.424;10.894;2023-04-24T23:39:31;2.70;;;1.80;;
7931;SDS011;4011;49.424;10.894;2023-04-24T23:44:57;3.10;;;1.85;;
7931;SDS011;4011;49.424;10.894;2023-04-24T23:50:25;2.80;;;1.90;;
7931;SDS011;4011;49.424;10.894;2023-04-24T23:55:49;4.15;;;2.20;;
